createdAt,value
2018-07-17T00:06:37.593Z,52.8
2018-07-17T00:23:24.707Z,53.6
2018-07-17T00:40:11.711Z,54.8
2018-07-17T00:56:58.608Z,55.2
2018-07-17T01:13:45.153Z,56.0
2018-07-17T01:30:31.711Z,56.4
2018-07-17T01:47:18.050Z,57.2
2018-07-17T02:04:04.396Z,58.0
2018-07-17T02:20:50.431Z,58.8
2018-07-17T02:37:36.312Z,59.2
2018-07-17T02:54:22.088Z,59.6
2018-07-17T03:11:07.665Z,60.4
2018-07-17T03:27:52.777Z,61.2
2018-07-17T03:44:37.541Z,62.0
2018-07-17T04:01:22.289Z,62.4
2018-07-17T04:18:06.956Z,64.0
2018-07-17T04:34:52.090Z,64.0
2018-07-17T04:51:37.621Z,64.0
2018-07-17T05:08:23.601Z,63.6
2018-07-17T05:25:09.833Z,62.4
2018-07-17T05:38:35.347Z,62.0
2018-07-17T05:52:01.366Z,60.4
2018-07-17T06:02:06.279Z,58.8
2018-07-17T06:08:49.786Z,58.0
2018-07-17T06:22:17.115Z,56.8
2018-07-17T06:32:23.003Z,56.8
2018-07-17T06:45:51.349Z,55.2
2018-07-17T06:59:20.116Z,53.2
2018-07-17T07:12:49.385Z,52.8
2018-07-17T07:29:41.620Z,50.8
2018-07-17T07:46:34.409Z,49.6
2018-07-17T08:03:27.531Z,48.0
2018-07-17T08:20:21.893Z,47.2
2018-07-17T08:37:16.721Z,46.4
2018-07-17T08:54:12.187Z,45.2
2018-07-17T09:11:07.912Z,44.4
2018-07-17T09:28:04.031Z,43.6
2018-07-17T09:45:00.776Z,42.4
2018-07-17T10:01:57.107Z,41.6
2018-07-17T10:17:12.699Z,39.6
2018-07-17T10:34:10.262Z,38.4
2018-07-17T10:51:08.166Z,38.4
2018-07-17T11:08:05.823Z,38.4
2018-07-17T11:21:39.850Z,36.4
2018-07-17T11:36:55.970Z,36.8
2018-07-17T11:50:30.169Z,36.8
2018-07-17T12:00:40.796Z,36.4
2018-07-17T12:17:38.902Z,36.4
2018-07-17T12:34:36.997Z,36.8
2018-07-17T12:51:35.078Z,36.8
2018-07-17T13:08:32.952Z,36.4
2018-07-17T13:25:30.806Z,35.2
2018-07-17T13:42:28.805Z,33.6
2018-07-17T13:59:26.575Z,33.6
2018-07-17T14:16:24.710Z,33.6
2018-07-17T14:23:11.917Z,34.0
2018-07-17T14:40:09.885Z,34.0
2018-07-17T14:57:08.219Z,34.4
2018-07-17T15:03:55.309Z,34.0
2018-07-17T15:20:53.317Z,35.2
2018-07-17T15:37:51.428Z,35.2
2018-07-17T15:54:49.425Z,35.2
2018-07-17T16:11:47.371Z,34.8
2018-07-17T16:28:45.598Z,34.0
2018-07-17T16:44:01.794Z,34.4
2018-07-17T17:01:00.070Z,34.4
2018-07-17T17:17:58.353Z,34.4
2018-07-17T17:31:33.058Z,35.2
2018-07-17T17:41:43.670Z,35.2
2018-07-17T17:53:36.006Z,36.0
2018-07-17T18:02:04.432Z,37.2
2018-07-17T18:10:32.554Z,38.0
2018-07-17T18:24:04.978Z,38.8
2018-07-17T18:40:59.454Z,39.2
2018-07-17T18:57:53.214Z,40.8
2018-07-17T19:08:01.119Z,43.2
2018-07-17T19:14:46.143Z,44.4
2018-07-17T19:28:15.831Z,46.4
2018-07-17T19:45:07.539Z,47.2
2018-07-17T19:58:36.589Z,48.8
2018-07-17T20:15:27.130Z,50.0
2018-07-17T20:32:17.069Z,50.8
2018-07-17T20:49:06.588Z,52.0
2018-07-17T21:05:55.581Z,53.2
2018-07-17T21:22:44.105Z,54.0
2018-07-17T21:39:32.083Z,54.8
2018-07-17T21:56:19.746Z,55.6
2018-07-17T22:13:07.160Z,56.0
2018-07-17T22:26:32.834Z,56.8
2018-07-17T22:43:19.299Z,57.6
2018-07-17T23:00:05.528Z,58.0
2018-07-17T23:16:51.493Z,58.4
2018-07-17T23:33:37.394Z,58.8
2018-07-17T23:50:23.359Z,59.6
